createdAt,value
2022-10-17T00:00:52.986Z,8.75
2022-10-17T00:03:20.535Z,7.57
2022-10-17T00:05:48.774Z,8.85
2022-10-17T00:08:18.046Z,9.55
2022-10-17T00:10:46.014Z,8.73
2022-10-17T00:13:13.655Z,9.48
2022-10-17T00:15:44.858Z,8.50
2022-10-17T00:18:12.497Z,8.55
2022-10-17T00:20:40.231Z,7.00
2022-10-17T00:23:07.763Z,9.20
2022-10-17T00:25:35.355Z,7.90
2022-10-17T00:28:03.237Z,8.70
2022-10-17T00:30:32.809Z,7.53
2022-10-17T00:33:00.379Z,8.93
2022-10-17T00:35:27.911Z,7.05
2022-10-17T00:37:55.421Z,11.32
2022-10-17T00:40:23.134Z,8.38
2022-10-17T00:42:53.099Z,8.60
2022-10-17T00:45:23.511Z,7.63
2022-10-17T00:47:59.936Z,8.23
2022-10-17T00:50:28.454Z,9.20
2022-10-17T00:53:01.565Z,7.07
2022-10-17T00:55:33.431Z,8.55
2022-10-17T00:58:04.018Z,6.90
2022-10-17T01:00:31.670Z,7.05
2022-10-17T01:02:59.269Z,6.22
2022-10-17T01:05:26.903Z,9.73
2022-10-17T01:07:56.631Z,8.50
2022-10-17T01:10:31.345Z,7.10
2022-10-17T01:13:08.464Z,9.60
2022-10-17T01:16:00.993Z,7.30
2022-10-17T01:18:56.713Z,8.65
2022-10-17T01:21:44.582Z,8.18
2022-10-17T01:24:32.399Z,12.13
2022-10-17T01:27:11.792Z,7.80
2022-10-17T01:29:54.493Z,8.88
2022-10-17T01:32:31.117Z,9.57
2022-10-17T01:35:09.820Z,14.80
2022-10-17T01:38:11.647Z,5.55
2022-10-17T01:43:34.698Z,5.70
2022-10-17T01:46:26.815Z,8.27
2022-10-17T01:48:57.379Z,8.43
2022-10-17T01:51:32.807Z,4.72
2022-10-17T01:54:23.790Z,4.72
2022-10-17T01:56:58.293Z,7.30
2022-10-17T01:59:34.108Z,4.22
2022-10-17T02:02:02.612Z,8.90
2022-10-17T02:04:30.342Z,6.35
2022-10-17T02:07:05.633Z,5.05
2022-10-17T02:09:33.207Z,5.43
2022-10-17T02:12:35.169Z,9.23
2022-10-17T02:15:02.853Z,6.15
2022-10-17T02:17:43.635Z,5.72
2022-10-17T02:20:35.423Z,13.40
2022-10-17T02:26:09.394Z,7.43
2022-10-17T02:28:51.808Z,5.25
2022-10-17T02:31:39.961Z,8.98
2022-10-17T02:34:29.900Z,7.05
2022-10-17T02:37:00.531Z,7.30
2022-10-17T02:39:30.861Z,9.27
2022-10-17T02:42:02.133Z,8.10
2022-10-17T02:44:32.146Z,10.00
2022-10-17T02:47:21.806Z,5.80
2022-10-17T02:49:55.866Z,7.40
2022-10-17T02:52:45.531Z,7.20
2022-10-17T02:55:31.550Z,8.95
2022-10-17T02:58:16.233Z,10.98
2022-10-17T03:00:44.884Z,4.90
2022-10-17T03:03:24.502Z,9.73
2022-10-17T03:05:52.845Z,11.93
2022-10-17T03:08:23.863Z,12.45
2022-10-17T03:10:51.910Z,8.73
2022-10-17T03:13:20.016Z,12.75
2022-10-17T03:15:47.653Z,8.90
2022-10-17T03:18:15.254Z,12.02
2022-10-17T03:20:42.894Z,12.38
2022-10-17T03:23:10.704Z,11.43
2022-10-17T03:25:38.216Z,11.63
2022-10-17T03:28:06.319Z,8.75
2022-10-17T03:30:34.574Z,10.45
2022-10-17T03:33:02.136Z,8.57
2022-10-17T03:35:29.799Z,10.15
2022-10-17T03:37:58.010Z,11.57
2022-10-17T03:40:27.478Z,12.05
2022-10-17T03:42:55.167Z,9.75
2022-10-17T03:45:22.696Z,15.43
2022-10-17T03:47:50.522Z,11.38
2022-10-17T03:50:18.808Z,12.55
2022-10-17T03:52:48.392Z,10.23
2022-10-17T03:55:16.744Z,13.23
2022-10-17T03:57:45.629Z,10.73
2022-10-17T04:00:14.782Z,8.18
2022-10-17T04:02:42.296Z,9.50
2022-10-17T04:05:15.936Z,10.32
2022-10-17T04:07:43.554Z,9.88
2022-10-17T04:10:13.143Z,13.57
2022-10-17T04:12:40.730Z,14.10
2022-10-17T04:15:09.127Z,14.93
2022-10-17T04:17:38.202Z,7.90
2022-10-17T04:20:07.725Z,8.77
2022-10-17T04:22:35.406Z,13.75
2022-10-17T04:25:04.961Z,9.68
2022-10-17T04:27:38.922Z,11.48
2022-10-17T04:30:07.627Z,12.00
2022-10-17T04:32:39.319Z,13.15
2022-10-17T04:35:12.451Z,11.13
2022-10-17T04:37:43.788Z,15.15
2022-10-17T04:40:18.613Z,11.82
2022-10-17T04:42:47.241Z,13.85
2022-10-17T04:45:19.062Z,12.80
2022-10-17T04:47:48.178Z,17.02
2022-10-17T04:50:15.925Z,8.23
2022-10-17T04:52:52.690Z,14.80
2022-10-17T04:55:20.256Z,12.60
2022-10-17T04:57:47.783Z,15.02
2022-10-17T05:00:20.979Z,12.77
2022-10-17T05:03:17.746Z,12.95
2022-10-17T05:05:45.442Z,15.88
2022-10-17T05:08:13.519Z,11.88
2022-10-17T05:10:44.418Z,19.95
2022-10-17T05:13:12.559Z,10.27
2022-10-17T05:15:41.459Z,13.93
2022-10-17T05:18:09.024Z,15.73
2022-10-17T05:20:37.596Z,11.57
2022-10-17T05:23:07.174Z,12.88
2022-10-17T05:25:40.271Z,10.85
2022-10-17T05:28:07.922Z,7.40
2022-10-17T05:30:36.856Z,15.55
2022-10-17T05:33:07.238Z,14.23
2022-10-17T05:35:34.847Z,13.00
2022-10-17T05:38:02.739Z,16.48
2022-10-17T05:40:34.015Z,15.38
2022-10-17T05:43:01.943Z,13.82
2022-10-17T05:45:29.662Z,13.07
2022-10-17T05:47:57.602Z,15.40
2022-10-17T05:50:25.390Z,18.40
2022-10-17T05:53:02.798Z,14.80
2022-10-17T05:55:30.778Z,18.63
2022-10-17T05:58:00.885Z,16.67
2022-10-17T06:00:33.481Z,14.85
2022-10-17T06:03:01.234Z,15.07
2022-10-17T06:05:28.934Z,13.63
2022-10-17T06:07:59.633Z,15.90
2022-10-17T06:10:31.091Z,13.52
2022-10-17T06:12:59.806Z,19.25
2022-10-17T06:15:27.632Z,19.10
2022-10-17T06:18:01.544Z,12.80
2022-10-17T06:20:31.771Z,17.27
2022-10-17T06:22:59.449Z,18.17
2022-10-17T06:25:40.418Z,16.40
2022-10-17T06:28:07.988Z,19.10
2022-10-17T06:30:39.190Z,12.32
2022-10-17T06:33:07.223Z,17.13
2022-10-17T06:35:35.531Z,14.00
2022-10-17T06:38:04.388Z,15.55
2022-10-17T06:40:33.339Z,19.08
2022-10-17T06:43:01.154Z,11.82
2022-10-17T06:48:34.771Z,10.93
2022-10-17T06:51:14.726Z,23.90
2022-10-17T06:53:52.910Z,18.80
2022-10-17T06:56:30.321Z,20.90
2022-10-17T06:59:10.763Z,14.10
2022-10-17T07:01:43.196Z,19.10
2022-10-17T07:04:14.930Z,13.70
2022-10-17T07:06:42.586Z,15.95
2022-10-17T07:09:17.126Z,18.60
2022-10-17T07:11:45.817Z,16.13
2022-10-17T07:14:17.599Z,17.77
2022-10-17T07:16:45.480Z,17.55
2022-10-17T07:19:24.901Z,19.02
2022-10-17T07:21:53.064Z,17.48
2022-10-17T07:24:20.856Z,19.75
2022-10-17T07:26:57.410Z,16.80
2022-10-17T07:29:26.358Z,16.58
2022-10-17T07:31:59.534Z,17.00
2022-10-17T07:34:30.723Z,15.65
2022-10-17T07:36:58.335Z,16.15
2022-10-17T07:39:25.923Z,20.50
2022-10-17T07:41:53.680Z,16.55
2022-10-17T07:44:22.946Z,16.17
2022-10-17T07:46:52.610Z,20.00
2022-10-17T07:49:20.210Z,20.23
2022-10-17T07:51:49.401Z,19.30
2022-10-17T07:54:16.890Z,18.27
2022-10-17T07:56:50.349Z,16.73
2022-10-17T07:59:19.383Z,18.48
2022-10-17T08:01:47.063Z,20.95
2022-10-17T08:04:16.783Z,21.40
2022-10-17T08:06:44.471Z,22.25
2022-10-17T08:09:11.990Z,24.60
2022-10-17T08:11:39.568Z,18.73
2022-10-17T08:14:07.375Z,18.33
2022-10-17T08:16:34.955Z,13.02
2022-10-17T08:19:02.660Z,16.30
2022-10-17T08:21:30.433Z,14.93
2022-10-17T08:23:58.044Z,16.92
2022-10-17T08:26:25.531Z,20.65
2022-10-17T08:28:53.572Z,13.93
2022-10-17T08:31:21.532Z,17.85
2022-10-17T08:33:50.848Z,16.35
2022-10-17T08:36:20.555Z,15.43
2022-10-17T08:38:52.585Z,12.68
2022-10-17T08:41:48.883Z,14.63
2022-10-17T08:44:33.872Z,17.75
2022-10-17T08:47:05.398Z,15.68
2022-10-17T08:49:47.151Z,14.02
2022-10-17T08:52:40.427Z,13.13
2022-10-17T08:55:22.923Z,12.50
2022-10-17T08:57:50.498Z,16.70
2022-10-17T09:00:21.022Z,11.75
2022-10-17T09:03:05.548Z,12.10
2022-10-17T09:05:49.298Z,14.63
2022-10-17T09:08:47.661Z,12.95
2022-10-17T09:11:25.135Z,13.07
2022-10-17T09:14:22.045Z,11.95
2022-10-17T09:17:03.902Z,12.13
2022-10-17T09:19:39.074Z,11.57
2022-10-17T09:22:11.779Z,19.05
2022-10-17T09:24:39.338Z,10.30
2022-10-17T09:27:22.623Z,12.70
2022-10-17T09:30:02.276Z,9.60
2022-10-17T09:32:30.001Z,13.32
2022-10-17T09:34:57.835Z,15.50
2022-10-17T09:37:31.595Z,13.57
2022-10-17T09:39:59.141Z,9.80
2022-10-17T09:42:28.461Z,13.38
2022-10-17T09:45:04.774Z,11.60
2022-10-17T09:47:41.413Z,13.05
2022-10-17T09:50:30.210Z,13.90
2022-10-17T09:53:02.820Z,17.73
2022-10-17T09:55:30.300Z,9.70
2022-10-17T09:58:00.623Z,14.52
2022-10-17T10:00:34.104Z,11.87
2022-10-17T10:03:30.834Z,13.70
2022-10-17T10:06:00.159Z,12.80
2022-10-17T10:08:34.238Z,11.45
2022-10-17T10:11:07.891Z,16.25
2022-10-17T10:13:37.273Z,14.27
2022-10-17T10:16:21.097Z,9.35
2022-10-17T10:18:50.873Z,9.25
2022-10-17T10:21:21.859Z,8.60
2022-10-17T10:24:09.203Z,13.88
2022-10-17T10:26:47.791Z,15.07
2022-10-17T10:29:30.709Z,13.88
2022-10-17T10:32:08.478Z,8.18
2022-10-17T10:34:37.188Z,12.10
2022-10-17T10:37:19.038Z,8.65
2022-10-17T10:39:58.372Z,11.88
2022-10-17T10:42:27.912Z,11.75
2022-10-17T10:45:29.293Z,14.30
2022-10-17T10:48:11.534Z,10.23
2022-10-17T10:51:07.413Z,11.27
2022-10-17T10:53:39.151Z,10.48
2022-10-17T10:56:10.007Z,10.68
2022-10-17T10:59:00.544Z,8.43
2022-10-17T11:01:41.690Z,11.20
2022-10-17T11:04:18.462Z,11.43
2022-10-17T11:06:47.419Z,10.18
2022-10-17T11:09:34.019Z,11.27
2022-10-17T11:12:11.919Z,9.32
2022-10-17T11:15:03.512Z,12.02
2022-10-17T11:17:53.487Z,13.30
2022-10-17T11:20:40.544Z,14.95
2022-10-17T11:23:32.900Z,10.38
2022-10-17T11:26:05.919Z,10.85
2022-10-17T11:28:33.515Z,12.38
2022-10-17T11:31:07.072Z,8.85
2022-10-17T11:33:50.107Z,13.85
2022-10-17T11:36:21.656Z,10.85
2022-10-17T11:38:57.428Z,10.15
2022-10-17T11:41:36.173Z,8.18
2022-10-17T11:44:30.045Z,12.93
2022-10-17T11:47:24.019Z,12.55
2022-10-17T11:49:58.523Z,8.55
2022-10-17T11:52:55.303Z,9.07
2022-10-17T11:55:23.887Z,15.60
2022-10-17T11:58:22.558Z,7.70
2022-10-17T12:01:24.016Z,9.38
2022-10-17T12:07:29.927Z,13.15
2022-10-17T12:10:08.696Z,11.40
2022-10-17T12:12:38.240Z,12.52
2022-10-17T12:15:20.937Z,8.90
2022-10-17T12:18:02.377Z,11.38
2022-10-17T12:20:56.717Z,12.77
2022-10-17T12:23:31.019Z,11.88
2022-10-17T12:26:05.428Z,10.77
2022-10-17T12:28:42.334Z,8.90
2022-10-17T12:31:12.993Z,10.77
2022-10-17T12:33:46.820Z,10.23
2022-10-17T12:36:17.274Z,8.82
2022-10-17T12:38:49.924Z,9.10
2022-10-17T12:41:40.380Z,8.70
2022-10-17T12:44:14.421Z,11.20
2022-10-17T12:46:47.425Z,9.63
2022-10-17T12:49:54.361Z,8.10
2022-10-17T12:52:31.963Z,9.20
2022-10-17T12:55:12.137Z,9.98
2022-10-17T12:58:03.993Z,9.98
2022-10-17T13:01:18.843Z,10.18
2022-10-17T13:03:45.521Z,11.23
2022-10-17T13:06:21.917Z,10.75
2022-10-17T13:09:03.458Z,11.20
2022-10-17T13:11:34.663Z,8.52
2022-10-17T13:14:04.588Z,12.60
2022-10-17T13:16:40.410Z,9.25
2022-10-17T13:19:15.436Z,11.25
2022-10-17T13:22:06.761Z,13.32
2022-10-17T13:24:38.204Z,12.88
2022-10-17T13:27:21.699Z,11.43
2022-10-17T13:29:49.417Z,10.50
2022-10-17T13:32:16.935Z,8.45
2022-10-17T13:34:44.582Z,9.27
2022-10-17T13:37:15.679Z,10.00
2022-10-17T13:42:27.696Z,11.27
2022-10-17T13:44:57.263Z,10.23
2022-10-17T13:47:32.847Z,14.98
2022-10-17T13:50:00.921Z,9.38
2022-10-17T13:52:30.294Z,12.93
2022-10-17T13:55:17.885Z,12.65
2022-10-17T13:57:45.754Z,12.00
2022-10-17T14:00:21.843Z,8.05
2022-10-17T14:02:49.491Z,5.53
2022-10-17T14:05:23.302Z,10.55
2022-10-17T14:08:16.694Z,8.93
2022-10-17T14:10:45.299Z,7.50
2022-10-17T14:13:23.074Z,11.65
2022-10-17T14:15:52.617Z,10.52
2022-10-17T14:18:30.844Z,9.38
2022-10-17T14:23:52.719Z,9.25
2022-10-17T14:26:23.503Z,8.10
2022-10-17T14:29:05.248Z,9.80
2022-10-17T14:31:35.338Z,7.20
2022-10-17T14:34:04.988Z,9.43
2022-10-17T14:36:38.961Z,7.68
2022-10-17T14:39:14.122Z,6.10
2022-10-17T14:41:45.933Z,9.40
2022-10-17T14:44:42.938Z,8.02
2022-10-17T14:47:42.723Z,7.38
2022-10-17T14:50:12.762Z,8.50
2022-10-17T14:52:40.863Z,6.15
2022-10-17T14:55:53.889Z,8.55
2022-10-17T14:58:31.958Z,8.73
2022-10-17T15:01:01.654Z,8.75
2022-10-17T15:03:30.360Z,9.20
2022-10-17T15:05:58.506Z,9.23
2022-10-17T15:08:26.047Z,8.18
2022-10-17T15:10:53.647Z,9.90
2022-10-17T15:13:31.087Z,8.60
2022-10-17T15:15:59.846Z,7.03
2022-10-17T15:18:27.332Z,11.32
2022-10-17T15:21:04.594Z,8.00
2022-10-17T15:23:40.614Z,7.25
2022-10-17T15:26:26.363Z,7.80
2022-10-17T15:28:54.370Z,8.02
2022-10-17T15:31:24.510Z,9.88
2022-10-17T15:33:52.503Z,6.70
2022-10-17T15:36:32.827Z,8.10
2022-10-17T15:39:02.123Z,6.13
2022-10-17T15:41:31.823Z,8.88
2022-10-17T15:44:00.260Z,8.13
2022-10-17T15:46:30.331Z,9.43
2022-10-17T15:49:03.704Z,9.60
2022-10-17T15:51:31.267Z,6.78
2022-10-17T15:54:01.453Z,9.15
2022-10-17T15:56:41.127Z,9.27
2022-10-17T15:59:15.453Z,9.07
2022-10-17T16:01:43.090Z,12.02
2022-10-17T16:04:14.756Z,9.15
2022-10-17T16:06:45.421Z,8.77
2022-10-17T16:09:13.271Z,9.65
2022-10-17T16:11:43.357Z,7.13
2022-10-17T16:14:13.675Z,12.45
2022-10-17T16:16:41.531Z,8.07
2022-10-17T16:19:09.437Z,11.90
2022-10-17T16:21:39.882Z,8.93
2022-10-17T16:24:10.196Z,11.17
2022-10-17T16:26:38.764Z,11.02
2022-10-17T16:29:06.394Z,6.28
2022-10-17T16:31:36.384Z,8.20
2022-10-17T16:34:06.515Z,7.75
2022-10-17T16:36:34.767Z,7.07
2022-10-17T16:39:02.577Z,12.38
2022-10-17T16:41:32.730Z,6.63
2022-10-17T16:44:02.984Z,9.10
2022-10-17T16:46:32.299Z,9.55
2022-10-17T16:49:00.254Z,11.27
2022-10-17T16:51:29.166Z,10.20
2022-10-17T16:54:00.095Z,8.68
2022-10-17T16:56:29.909Z,8.60
2022-10-17T16:58:57.478Z,11.43
2022-10-17T17:01:26.175Z,9.52
2022-10-17T17:03:54.204Z,8.25
2022-10-17T17:06:26.381Z,16.13
2022-10-17T17:08:54.867Z,8.50
2022-10-17T17:11:24.144Z,8.60
2022-10-17T17:13:52.098Z,11.35
2022-10-17T17:16:22.483Z,8.48
2022-10-17T17:18:55.710Z,15.13
2022-10-17T17:21:23.395Z,9.00
2022-10-17T17:23:51.876Z,10.68
2022-10-17T17:26:21.895Z,10.95
2022-10-17T17:28:50.255Z,12.80
2022-10-17T17:31:23.294Z,8.95
2022-10-17T17:33:51.985Z,12.48
2022-10-17T17:36:22.302Z,8.50
2022-10-17T17:38:50.921Z,9.23
2022-10-17T17:41:20.580Z,9.32
2022-10-17T17:43:49.096Z,11.00
2022-10-17T17:46:19.086Z,7.45
2022-10-17T17:48:48.335Z,10.25
2022-10-17T17:51:18.901Z,11.05
2022-10-17T17:53:46.715Z,8.82
2022-10-17T17:56:17.022Z,8.35
2022-10-17T17:58:46.499Z,10.80
2022-10-17T18:01:19.314Z,13.38
2022-10-17T18:03:47.451Z,8.75
2022-10-17T18:06:15.714Z,11.68
2022-10-17T18:08:48.018Z,7.47
2022-10-17T18:11:18.369Z,14.98
2022-10-17T18:13:57.540Z,10.55
2022-10-17T18:16:26.957Z,9.93
2022-10-17T18:18:54.710Z,10.02
2022-10-17T18:21:22.438Z,8.70
2022-10-17T18:23:51.832Z,9.05
2022-10-17T18:26:20.012Z,8.23
2022-10-17T18:28:48.020Z,8.45
2022-10-17T18:31:24.631Z,12.38
2022-10-17T18:33:53.810Z,8.10
2022-10-17T18:36:22.238Z,8.43
2022-10-17T18:38:50.538Z,7.80
2022-10-17T18:41:21.098Z,7.15
2022-10-17T18:43:50.601Z,7.63
2022-10-17T18:46:23.804Z,9.82
2022-10-17T18:48:52.083Z,10.88
2022-10-17T18:51:22.282Z,16.52
2022-10-17T18:53:52.206Z,13.90
2022-10-17T18:56:20.782Z,12.48
2022-10-17T18:58:48.710Z,11.27
2022-10-17T19:01:21.602Z,9.52
2022-10-17T19:03:51.459Z,14.73
2022-10-17T19:06:21.880Z,9.68
2022-10-17T19:08:50.082Z,7.43
2022-10-17T19:11:24.519Z,10.75
2022-10-17T19:13:52.784Z,13.73
2022-10-17T19:16:27.999Z,20.65
2022-10-17T19:19:04.785Z,17.92
2022-10-17T19:21:33.095Z,10.15
2022-10-17T19:24:03.189Z,11.07
2022-10-17T19:26:35.020Z,12.18
2022-10-17T19:29:04.316Z,14.18
2022-10-17T19:31:33.252Z,12.10
2022-10-17T19:34:01.255Z,14.45
2022-10-17T19:36:33.527Z,12.43
2022-10-17T19:39:04.886Z,12.57
2022-10-17T19:41:32.971Z,9.10
2022-10-17T19:44:01.393Z,11.13
2022-10-17T19:46:30.868Z,12.40
2022-10-17T19:48:59.081Z,13.13
2022-10-17T19:51:27.446Z,12.90
2022-10-17T19:54:00.633Z,15.43
2022-10-17T19:56:31.517Z,9.25
2022-10-17T19:58:59.757Z,13.32
2022-10-17T20:01:29.786Z,13.80
2022-10-17T20:03:57.531Z,10.60
2022-10-17T20:06:25.692Z,19.13
2022-10-17T20:08:53.863Z,9.95
2022-10-17T20:11:26.625Z,10.73
2022-10-17T20:13:55.365Z,14.60
2022-10-17T20:16:25.605Z,18.48
2022-10-17T20:18:55.210Z,18.27
2022-10-17T20:21:28.088Z,14.80
2022-10-17T20:23:56.512Z,14.30
2022-10-17T20:26:37.456Z,17.33
2022-10-17T20:29:11.215Z,16.75
2022-10-17T20:31:40.649Z,14.18
2022-10-17T20:34:11.243Z,17.13
2022-10-17T20:36:38.922Z,18.30
2022-10-17T20:39:07.298Z,21.00
2022-10-17T20:41:36.092Z,18.85
2022-10-17T20:44:04.741Z,17.40
2022-10-17T20:46:44.872Z,18.70
2022-10-17T20:49:18.749Z,17.67
2022-10-17T20:51:46.548Z,15.20
2022-10-17T20:54:14.235Z,15.05
2022-10-17T20:56:42.125Z,18.25
2022-10-17T20:59:12.963Z,28.33
2022-10-17T21:01:40.830Z,13.40
2022-10-17T21:04:40.658Z,14.18
2022-10-17T21:06:56.523Z,12.68
2022-10-17T21:09:24.238Z,17.20
2022-10-17T21:11:55.130Z,13.77
2022-10-17T21:14:24.919Z,14.80
2022-10-17T21:16:52.788Z,15.80
2022-10-17T21:19:21.813Z,15.55
2022-10-17T21:21:50.034Z,13.98
2022-10-17T21:24:19.269Z,20.60
2022-10-17T21:26:50.078Z,13.85
2022-10-17T21:29:17.651Z,17.23
2022-10-17T21:31:45.371Z,14.38
2022-10-17T21:34:18.900Z,18.70
2022-10-17T21:36:47.142Z,11.82
2022-10-17T21:39:15.531Z,15.63
2022-10-17T21:41:44.218Z,12.25
2022-10-17T21:44:14.103Z,14.45
2022-10-17T21:46:42.048Z,12.55
2022-10-17T21:49:12.203Z,16.20
2022-10-17T21:51:40.522Z,15.88
2022-10-17T21:54:08.831Z,14.07
2022-10-17T21:56:37.452Z,23.98
2022-10-17T21:59:05.998Z,16.67
2022-10-17T22:01:39.140Z,17.20
2022-10-17T22:04:10.956Z,15.98
2022-10-17T22:06:41.023Z,20.00
2022-10-17T22:09:15.055Z,17.45
2022-10-17T22:11:45.883Z,13.23
2022-10-17T22:14:16.600Z,12.97
2022-10-17T22:16:45.337Z,12.35
2022-10-17T22:19:15.306Z,13.48
2022-10-17T22:21:42.905Z,16.98
2022-10-17T22:24:12.930Z,14.52
2022-10-17T22:26:41.507Z,17.58
2022-10-17T22:29:09.441Z,16.73
2022-10-17T22:31:38.209Z,14.30
2022-10-17T22:34:07.019Z,16.27
2022-10-17T22:36:35.467Z,15.10
2022-10-17T22:39:03.757Z,15.70
2022-10-17T22:41:31.632Z,13.07
2022-10-17T22:43:59.351Z,13.60
2022-10-17T22:46:27.707Z,11.60
2022-10-17T22:48:55.618Z,13.55
2022-10-17T22:53:51.624Z,13.02
2022-10-17T22:56:21.031Z,17.40
2022-10-17T22:58:49.171Z,15.27
2022-10-17T23:01:21.698Z,17.25
2022-10-17T23:03:50.198Z,11.63
2022-10-17T23:06:18.440Z,16.77
2022-10-17T23:08:46.077Z,15.23
2022-10-17T23:11:13.637Z,14.63
2022-10-17T23:13:41.433Z,11.98
2022-10-17T23:16:09.473Z,15.10
2022-10-17T23:18:37.965Z,14.45
2022-10-17T23:21:05.990Z,18.60
2022-10-17T23:23:33.677Z,9.88
2022-10-17T23:26:09.861Z,9.38
2022-10-17T23:28:38.454Z,11.07
2022-10-17T23:31:17.319Z,12.18
2022-10-17T23:33:47.276Z,13.93
2022-10-17T23:36:18.398Z,11.52
2022-10-17T23:38:47.005Z,12.07
2022-10-17T23:41:15.679Z,13.38
2022-10-17T23:43:43.968Z,11.40
2022-10-17T23:46:11.784Z,10.57
2022-10-17T23:48:40.150Z,11.48
2022-10-17T23:51:09.212Z,14.40
2022-10-17T23:53:38.069Z,12.90
2022-10-17T23:56:06.619Z,12.32
2022-10-17T23:58:34.974Z,12.18
